sensor_id;sensor_type;location;lat;lon;timestamp;pressure;altitude;pressure_sealevel;temperature;humidity
28606;BME280;46498;49.968;7.754;2023-04-07T00:01:18;96966.00;;;4.96;100.00
28606;BME280;46498;49.968;7.754;2023-04-07T00:06:19;96968.00;;;4.94;100.00
28606;BME280;46498;49.968;7.754;2023-04-07T00:11:20;96965.00;;;4.91;100.00
28606;BME280;46498;49.968;7.754;2023-04-07T00:16:20;96962.00;;;4.94;100.00
28606;BME280;46498;49.968;7.754;2023-04-07T00:21:21;96956.00;;;4.81;100.00
28606;BME280;46498;49.968;7.754;2023-04-07T00:26:22;96946.00;;;4.83;100.00
28606;BME280;46498;49.968;7.754;2023-04-07T00:31:25;96942.00;;;4.84;100.00
28606;BME280;46498;49.968;7.754;2023-04-07T00:36:26;96942.00;;;4.77;100.00
28606;BME280;46498;49.968;7.754;2023-04-07T00:41:28;96938.00;;;4.81;100.00
28606;BME280;46498;49.968;7.754;2023-04-07T00:46:29;96937.00;;;4.87;100.00
28606;BME280;46498;49.968;7.754;2023-04-07T00:51:30;96926.00;;;4.86;100.00
28606;BME280;46498;49.968;7.754;2023-04-07T00:56:31;96915.00;;;4.93;100.00
28606;BME280;46498;49.968;7.754;2023-04-07T01:09:40;96891.00;;;5.03;100.00
28606;BME280;46498;49.968;7.754;2023-04-07T01:14:46;96890.00;;;4.87;100.00
28606;BME280;46498;49.968;7.754;2023-04-07T01:20:11;96891.00;;;4.93;100.00
28606;BME280;46498;49.968;7.754;2023-04-07T01:26:48;96882.00;;;4.97;100.00
28606;BME280;46498;49.968;7.754;2023-04-07T01:31:51;96884.00;;;5.00;100.00
28606;BME280;46498;49.968;7.754;2023-04-07T01:36:54;96880.00;;;5.06;100.00
28606;BME280;46498;49.968;7.754;2023-04-07T01:41:57;96872.00;;;5.13;100.00
28606;BME280;46498;49.968;7.754;2023-04-07T01:46:59;96867.00;;;5.05;100.00
28606;BME280;46498;49.968;7.754;2023-04-07T01:52:01;96859.00;;;4.98;100.00
28606;BME280;46498;49.968;7.754;2023-04-07T01:57:03;96861.00;;;5.11;100.00
28606;BME280;46498;49.968;7.754;2023-04-07T02:02:05;96857.00;;;5.09;100.00
28606;BME280;46498;49.968;7.754;2023-04-07T02:07:14;96848.00;;;5.09;100.00
28606;BME280;46498;49.968;7.754;2023-04-07T02:12:22;96849.00;;;5.04;100.00
28606;BME280;46498;49.968;7.754;2023-04-07T02:17:33;96846.00;;;5.19;100.00
28606;BME280;46498;49.968;7.754;2023-04-07T02:22:37;96849.00;;;5.07;100.00
28606;BME280;46498;49.968;7.754;2023-04-07T02:27:38;96842.00;;;5.00;100.00
28606;BME280;46498;49.968;7.754;2023-04-07T02:32:39;96842.00;;;4.98;100.00
28606;BME280;46498;49.968;7.754;2023-04-07T02:37:40;96837.00;;;5.03;100.00
28606;BME280;46498;49.968;7.754;2023-04-07T02:42:41;96838.00;;;5.00;100.00
28606;BME280;46498;49.968;7.754;2023-04-07T02:47:42;96833.00;;;5.01;100.00
28606;BME280;46498;49.968;7.754;2023-04-07T02:52:43;96838.00;;;4.94;100.00
28606;BME280;46498;49.968;7.754;2023-04-07T02:57:46;96841.00;;;5.02;100.00
28606;BME280;46498;49.968;7.754;2023-04-07T03:02:59;96835.00;;;5.05;100.00
28606;BME280;46498;49.968;7.754;2023-04-07T03:08:03;96831.00;;;5.11;100.00
28606;BME280;46498;49.968;7.754;2023-04-07T03:13:05;96830.00;;;5.02;100.00
28606;BME280;46498;49.968;7.754;2023-04-07T03:18:08;96828.00;;;4.98;100.00
28606;BME280;46498;49.968;7.754;2023-04-07T03:23:09;96822.00;;;5.07;100.00
28606;BME280;46498;49.968;7.754;2023-04-07T03:28:10;96825.00;;;5.18;100.00
28606;BME280;46498;49.968;7.754;2023-04-07T03:33:11;96824.00;;;5.15;100.00
28606;BME280;46498;49.968;7.754;2023-04-07T03:38:13;96823.00;;;5.08;100.00
28606;BME280;46498;49.968;7.754;2023-04-07T03:43:14;96819.00;;;5.26;100.00
28606;BME280;46498;49.968;7.754;2023-04-07T03:48:15;96819.00;;;5.35;100.00
28606;BME280;46498;49.968;7.754;2023-04-07T03:53:24;96812.00;;;5.26;100.00
28606;BME280;46498;49.968;7.754;2023-04-07T03:58:26;96813.00;;;5.20;100.00
28606;BME280;46498;49.968;7.754;2023-04-07T04:03:27;96816.00;;;5.24;100.00
28606;BME280;46498;49.968;7.754;2023-04-07T04:08:38;96812.00;;;5.34;100.00
28606;BME280;46498;49.968;7.754;2023-04-07T04:13:39;96811.00;;;5.40;100.00
28606;BME280;46498;49.968;7.754;2023-04-07T04:18:40;96807.00;;;5.27;100.00
28606;BME280;46498;49.968;7.754;2023-04-07T04:23:42;96809.00;;;5.18;100.00
28606;BME280;46498;49.968;7.754;2023-04-07T04:28:44;96819.00;;;5.23;100.00
28606;BME280;46498;49.968;7.754;2023-04-07T04:33:46;96817.00;;;5.11;100.00
28606;BME280;46498;49.968;7.754;2023-04-07T04:38:47;96828.00;;;5.11;100.00
28606;BME280;46498;49.968;7.754;2023-04-07T04:43:50;96827.00;;;5.23;100.00
28606;BME280;46498;49.968;7.754;2023-04-07T04:48:55;96818.00;;;5.05;100.00
28606;BME280;46498;49.968;7.754;2023-04-07T04:53:59;96824.00;;;5.26;100.00
28606;BME280;46498;49.968;7.754;2023-04-07T04:59:00;96824.00;;;5.21;100.00
28606;BME280;46498;49.968;7.754;2023-04-07T05:04:16;96833.00;;;5.18;100.00
28606;BME280;46498;49.968;7.754;2023-04-07T05:09:24;96835.00;;;5.31;100.00
28606;BME280;46498;49.968;7.754;2023-04-07T05:14:26;96838.00;;;5.28;100.00
28606;BME280;46498;49.968;7.754;2023-04-07T05:19:31;96833.00;;;5.32;100.00
28606;BME280;46498;49.968;7.754;2023-04-07T05:24:37;96840.00;;;5.20;100.00
28606;BME280;46498;49.968;7.754;2023-04-07T05:29:38;96837.00;;;5.24;100.00
28606;BME280;46498;49.968;7.754;2023-04-07T05:34:40;96834.00;;;5.27;100.00
28606;BME280;46498;49.968;7.754;2023-04-07T05:39:43;96843.00;;;5.19;100.00
28606;BME280;46498;49.968;7.754;2023-04-07T05:44:46;96843.00;;;5.21;100.00
28606;BME280;46498;49.968;7.754;2023-04-07T05:49:48;96840.00;;;5.20;100.00
28606;BME280;46498;49.968;7.754;2023-04-07T05:54:49;96844.00;;;5.16;100.00
28606;BME280;46498;49.968;7.754;2023-04-07T05:59:50;96844.00;;;5.24;100.00
28606;BME280;46498;49.968;7.754;2023-04-07T06:04:51;96853.00;;;5.31;100.00
28606;BME280;46498;49.968;7.754;2023-04-07T06:09:53;96854.00;;;5.42;100.00
28606;BME280;46498;49.968;7.754;2023-04-07T06:14:55;96854.00;;;5.42;100.00
28606;BME280;46498;49.968;7.754;2023-04-07T06:19:56;96851.00;;;5.41;100.00
28606;BME280;46498;49.968;7.754;2023-04-07T06:24:57;96861.00;;;5.53;100.00
28606;BME280;46498;49.968;7.754;2023-04-07T06:29:58;96866.00;;;5.51;100.00
28606;BME280;46498;49.968;7.754;2023-04-07T06:34:59;96868.00;;;5.50;100.00
28606;BME280;46498;49.968;7.754;2023-04-07T06:40:00;96867.00;;;5.59;100.00
28606;BME280;46498;49.968;7.754;2023-04-07T06:45:01;96873.00;;;5.71;100.00
28606;BME280;46498;49.968;7.754;2023-04-07T06:50:03;96871.00;;;5.80;100.00
28606;BME280;46498;49.968;7.754;2023-04-07T06:55:05;96877.00;;;5.86;100.00
28606;BME280;46498;49.968;7.754;2023-04-07T07:00:08;96875.00;;;5.83;100.00
28606;BME280;46498;49.968;7.754;2023-04-07T07:05:09;96878.00;;;5.71;100.00
28606;BME280;46498;49.968;7.754;2023-04-07T07:10:11;96882.00;;;5.67;100.00
28606;BME280;46498;49.968;7.754;2023-04-07T07:15:11;96889.00;;;5.74;100.00
28606;BME280;46498;49.968;7.754;2023-04-07T07:20:12;96887.00;;;5.87;100.00
28606;BME280;46498;49.968;7.754;2023-04-07T07:25:13;96894.00;;;6.26;100.00
28606;BME280;46498;49.968;7.754;2023-04-07T07:30:14;96895.00;;;6.34;100.00
28606;BME280;46498;49.968;7.754;2023-04-07T07:35:15;96887.00;;;6.52;100.00
28606;BME280;46498;49.968;7.754;2023-04-07T07:40:16;96900.00;;;6.62;100.00
28606;BME280;46498;49.968;7.754;2023-04-07T07:45:17;96904.00;;;6.64;100.00
28606;BME280;46498;49.968;7.754;2023-04-07T07:50:19;96896.00;;;6.69;100.00
28606;BME280;46498;49.968;7.754;2023-04-07T07:55:20;96901.00;;;6.83;100.00
28606;BME280;46498;49.968;7.754;2023-04-07T08:00:21;96906.00;;;6.90;100.00
28606;BME280;46498;49.968;7.754;2023-04-07T08:05:23;96915.00;;;6.95;100.00
28606;BME280;46498;49.968;7.754;2023-04-07T08:10:24;96918.00;;;6.99;100.00
28606;BME280;46498;49.968;7.754;2023-04-07T08:15:25;96924.00;;;7.12;100.00
28606;BME280;46498;49.968;7.754;2023-04-07T08:20:26;96932.00;;;7.12;100.00
28606;BME280;46498;49.968;7.754;2023-04-07T08:25:27;96938.00;;;7.10;100.00
28606;BME280;46498;49.968;7.754;2023-04-07T08:30:28;96942.00;;;7.13;100.00
28606;BME280;46498;49.968;7.754;2023-04-07T08:35:29;96942.00;;;7.13;100.00
28606;BME280;46498;49.968;7.754;2023-04-07T08:40:31;96949.00;;;7.14;100.00
28606;BME280;46498;49.968;7.754;2023-04-07T08:45:32;96948.00;;;7.01;100.00
28606;BME280;46498;49.968;7.754;2023-04-07T08:50:34;96958.00;;;6.93;100.00
28606;BME280;46498;49.968;7.754;2023-04-07T08:55:35;96961.00;;;6.92;100.00
28606;BME280;46498;49.968;7.754;2023-04-07T09:00:38;96965.00;;;7.07;100.00
28606;BME280;46498;49.968;7.754;2023-04-07T09:05:43;96965.00;;;6.95;100.00
28606;BME280;46498;49.968;7.754;2023-04-07T09:10:44;96963.00;;;6.95;100.00
28606;BME280;46498;49.968;7.754;2023-04-07T09:15:45;96966.00;;;6.97;100.00
28606;BME280;46498;49.968;7.754;2023-04-07T09:21:03;96970.00;;;7.01;100.00
28606;BME280;46498;49.968;7.754;2023-04-07T09:26:22;96970.00;;;7.04;100.00
28606;BME280;46498;49.968;7.754;2023-04-07T09:31:47;96977.00;;;7.00;100.00
28606;BME280;46498;49.968;7.754;2023-04-07T09:36:55;96979.00;;;6.93;100.00
28606;BME280;46498;49.968;7.754;2023-04-07T09:41:56;96984.00;;;7.05;100.00
28606;BME280;46498;49.968;7.754;2023-04-07T09:46:58;96980.00;;;7.20;100.00
28606;BME280;46498;49.968;7.754;2023-04-07T09:52:00;96987.00;;;7.17;100.00
28606;BME280;46498;49.968;7.754;2023-04-07T09:57:06;96977.00;;;7.22;100.00
28606;BME280;46498;49.968;7.754;2023-04-07T10:02:08;96990.00;;;7.09;100.00
28606;BME280;46498;49.968;7.754;2023-04-07T10:07:09;96990.00;;;7.02;100.00
28606;BME280;46498;49.968;7.754;2023-04-07T10:12:11;96996.00;;;7.34;100.00
28606;BME280;46498;49.968;7.754;2023-04-07T10:17:13;96993.00;;;7.44;100.00
28606;BME280;46498;49.968;7.754;2023-04-07T10:22:19;97005.00;;;7.48;100.00
28606;BME280;46498;49.968;7.754;2023-04-07T10:27:32;97003.00;;;7.52;100.00
28606;BME280;46498;49.968;7.754;2023-04-07T10:32:45;97007.00;;;7.69;100.00
28606;BME280;46498;49.968;7.754;2023-04-07T10:38:10;97002.00;;;7.84;100.00
28606;BME280;46498;49.968;7.754;2023-04-07T10:43:36;97014.00;;;7.87;100.00
28606;BME280;46498;49.968;7.754;2023-04-07T10:48:38;97018.00;;;7.83;100.00
28606;BME280;46498;49.968;7.754;2023-04-07T10:54:17;97023.00;;;7.96;100.00
28606;BME280;46498;49.968;7.754;2023-04-07T10:59:20;97026.00;;;7.93;100.00
28606;BME280;46498;49.968;7.754;2023-04-07T11:04:36;97023.00;;;8.20;100.00
28606;BME280;46498;49.968;7.754;2023-04-07T11:09:38;97024.00;;;8.28;100.00
28606;BME280;46498;49.968;7.754;2023-04-07T11:14:40;97033.00;;;8.10;100.00
28606;BME280;46498;49.968;7.754;2023-04-07T11:19:52;97039.00;;;7.75;100.00
28606;BME280;46498;49.968;7.754;2023-04-07T11:24:53;97035.00;;;7.62;100.00
28606;BME280;46498;49.968;7.754;2023-04-07T11:29:56;97034.00;;;7.79;100.00
28606;BME280;46498;49.968;7.754;2023-04-07T11:34:57;97042.00;;;7.84;100.00
28606;BME280;46498;49.968;7.754;2023-04-07T11:39:58;97044.00;;;7.70;100.00
28606;BME280;46498;49.968;7.754;2023-04-07T11:44:59;97043.00;;;7.53;100.00
28606;BME280;46498;49.968;7.754;2023-04-07T11:50:01;97042.00;;;7.41;100.00
28606;BME280;46498;49.968;7.754;2023-04-07T11:55:02;97038.00;;;7.64;100.00
28606;BME280;46498;49.968;7.754;2023-04-07T12:00:11;97048.00;;;8.32;100.00
28606;BME280;46498;49.968;7.754;2023-04-07T12:05:12;97049.00;;;8.70;100.00
28606;BME280;46498;49.968;7.754;2023-04-07T12:10:23;97043.00;;;8.65;100.00
28606;BME280;46498;49.968;7.754;2023-04-07T12:15:27;97056.00;;;8.14;100.00
28606;BME280;46498;49.968;7.754;2023-04-07T12:20:28;97060.00;;;8.08;100.00
28606;BME280;46498;49.968;7.754;2023-04-07T12:25:29;97064.00;;;8.22;100.00
28606;BME280;46498;49.968;7.754;2023-04-07T12:30:30;97062.00;;;8.56;100.00
28606;BME280;46498;49.968;7.754;2023-04-07T12:35:31;97066.00;;;8.55;100.00
28606;BME280;46498;49.968;7.754;2023-04-07T12:40:32;97073.00;;;8.18;100.00
28606;BME280;46498;49.968;7.754;2023-04-07T12:45:34;97075.00;;;7.98;100.00
28606;BME280;46498;49.968;7.754;2023-04-07T12:50:35;97073.00;;;7.98;100.00
28606;BME280;46498;49.968;7.754;2023-04-07T12:55:37;97084.00;;;8.32;100.00
28606;BME280;46498;49.968;7.754;2023-04-07T13:00:38;97081.00;;;8.37;100.00
28606;BME280;46498;49.968;7.754;2023-04-07T13:05:39;97079.00;;;8.56;100.00
28606;BME280;46498;49.968;7.754;2023-04-07T13:10:40;97083.00;;;8.68;100.00
28606;BME280;46498;49.968;7.754;2023-04-07T13:15:42;97079.00;;;8.81;100.00
28606;BME280;46498;49.968;7.754;2023-04-07T13:20:43;97092.00;;;8.74;100.00
28606;BME280;46498;49.968;7.754;2023-04-07T13:25:52;97098.00;;;8.41;100.00
28606;BME280;46498;49.968;7.754;2023-04-07T13:30:53;97094.00;;;8.09;100.00
28606;BME280;46498;49.968;7.754;2023-04-07T13:35:54;97089.00;;;7.90;100.00
28606;BME280;46498;49.968;7.754;2023-04-07T13:40:55;97086.00;;;8.07;100.00
28606;BME280;46498;49.968;7.754;2023-04-07T13:45:56;97085.00;;;8.41;100.00
28606;BME280;46498;49.968;7.754;2023-04-07T13:50:57;97088.00;;;8.73;100.00
28606;BME280;46498;49.968;7.754;2023-04-07T13:55:57;97100.00;;;8.73;100.00
28606;BME280;46498;49.968;7.754;2023-04-07T14:00:58;97099.00;;;8.42;100.00
28606;BME280;46498;49.968;7.754;2023-04-07T14:05:59;97103.00;;;8.28;100.00
28606;BME280;46498;49.968;7.754;2023-04-07T14:11:02;97090.00;;;8.36;100.00
28606;BME280;46498;49.968;7.754;2023-04-07T14:16:03;97091.00;;;8.55;100.00
28606;BME280;46498;49.968;7.754;2023-04-07T14:21:04;97091.00;;;8.77;100.00
28606;BME280;46498;49.968;7.754;2023-04-07T14:26:09;97087.00;;;8.93;100.00
28606;BME280;46498;49.968;7.754;2023-04-07T14:31:14;97095.00;;;9.15;100.00
28606;BME280;46498;49.968;7.754;2023-04-07T14:36:18;97102.00;;;8.99;100.00
28606;BME280;46498;49.968;7.754;2023-04-07T14:41:19;97102.00;;;8.64;100.00
28606;BME280;46498;49.968;7.754;2023-04-07T14:46:23;97100.00;;;8.49;100.00
28606;BME280;46498;49.968;7.754;2023-04-07T14:51:25;97103.00;;;8.49;100.00
28606;BME280;46498;49.968;7.754;2023-04-07T14:56:27;97097.00;;;8.50;100.00
28606;BME280;46498;49.968;7.754;2023-04-07T15:01:28;97102.00;;;8.47;100.00
28606;BME280;46498;49.968;7.754;2023-04-07T15:06:29;97097.00;;;8.57;100.00
28606;BME280;46498;49.968;7.754;2023-04-07T15:11:31;97081.00;;;8.68;100.00
28606;BME280;46498;49.968;7.754;2023-04-07T15:16:32;97097.00;;;8.82;100.00
28606;BME280;46498;49.968;7.754;2023-04-07T15:21:33;97105.00;;;8.98;100.00
28606;BME280;46498;49.968;7.754;2023-04-07T15:26:34;97107.00;;;9.30;100.00
28606;BME280;46498;49.968;7.754;2023-04-07T15:31:35;97101.00;;;9.46;100.00
28606;BME280;46498;49.968;7.754;2023-04-07T15:36:36;97103.00;;;9.42;100.00
28606;BME280;46498;49.968;7.754;2023-04-07T15:41:36;97112.00;;;9.37;100.00
28606;BME280;46498;49.968;7.754;2023-04-07T15:46:37;97122.00;;;9.40;100.00
28606;BME280;46498;49.968;7.754;2023-04-07T15:51:38;97135.00;;;9.07;100.00
28606;BME280;46498;49.968;7.754;2023-04-07T15:56:39;97131.00;;;8.81;100.00
28606;BME280;46498;49.968;7.754;2023-04-07T16:01:40;97138.00;;;8.53;100.00
28606;BME280;46498;49.968;7.754;2023-04-07T16:06:41;97141.00;;;8.26;100.00
28606;BME280;46498;49.968;7.754;2023-04-07T16:11:42;97145.00;;;8.17;100.00
28606;BME280;46498;49.968;7.754;2023-04-07T16:16:43;97150.00;;;8.11;100.00
28606;BME280;46498;49.968;7.754;2023-04-07T16:21:44;97151.00;;;7.95;100.00
28606;BME280;46498;49.968;7.754;2023-04-07T16:26:45;97158.00;;;7.99;100.00
28606;BME280;46498;49.968;7.754;2023-04-07T16:31:49;97156.00;;;8.09;100.00
28606;BME280;46498;49.968;7.754;2023-04-07T16:36:50;97161.00;;;8.03;100.00
28606;BME280;46498;49.968;7.754;2023-04-07T16:41:51;97163.00;;;7.99;100.00
28606;BME280;46498;49.968;7.754;2023-04-07T16:46:52;97170.00;;;8.02;100.00
28606;BME280;46498;49.968;7.754;2023-04-07T16:51:53;97173.00;;;8.09;100.00
28606;BME280;46498;49.968;7.754;2023-04-07T16:56:54;97178.00;;;8.12;100.00
28606;BME280;46498;49.968;7.754;2023-04-07T17:01:55;97189.00;;;8.11;100.00
28606;BME280;46498;49.968;7.754;2023-04-07T17:06:59;97187.00;;;8.07;100.00
28606;BME280;46498;49.968;7.754;2023-04-07T17:12:01;97198.00;;;7.87;100.00
28606;BME280;46498;49.968;7.754;2023-04-07T17:17:02;97198.00;;;7.73;100.00
28606;BME280;46498;49.968;7.754;2023-04-07T17:22:03;97196.00;;;7.75;100.00
28606;BME280;46498;49.968;7.754;2023-04-07T17:27:04;97200.00;;;7.78;100.00
28606;BME280;46498;49.968;7.754;2023-04-07T17:32:05;97208.00;;;7.84;100.00
28606;BME280;46498;49.968;7.754;2023-04-07T17:37:07;97207.00;;;7.72;100.00
28606;BME280;46498;49.968;7.754;2023-04-07T17:42:08;97222.00;;;7.67;100.00
28606;BME280;46498;49.968;7.754;2023-04-07T17:47:10;97221.00;;;7.63;100.00
28606;BME280;46498;49.968;7.754;2023-04-07T17:52:12;97229.00;;;7.59;100.00
28606;BME280;46498;49.968;7.754;2023-04-07T17:57:13;97236.00;;;7.59;100.00
28606;BME280;46498;49.968;7.754;2023-04-07T18:02:16;97242.00;;;7.50;100.00
28606;BME280;46498;49.968;7.754;2023-04-07T18:07:17;97244.00;;;7.43;100.00
28606;BME280;46498;49.968;7.754;2023-04-07T18:12:18;97246.00;;;7.32;100.00
28606;BME280;46498;49.968;7.754;2023-04-07T18:17:19;97246.00;;;7.27;100.00
28606;BME280;46498;49.968;7.754;2023-04-07T18:22:20;97251.00;;;7.18;100.00
28606;BME280;46498;49.968;7.754;2023-04-07T18:27:21;97263.00;;;7.09;100.00
28606;BME280;46498;49.968;7.754;2023-04-07T18:32:24;97268.00;;;7.07;100.00
28606;BME280;46498;49.968;7.754;2023-04-07T18:37:26;97271.00;;;7.01;100.00
28606;BME280;46498;49.968;7.754;2023-04-07T18:42:29;97282.00;;;6.96;100.00
28606;BME280;46498;49.968;7.754;2023-04-07T18:47:30;97293.00;;;7.01;100.00
28606;BME280;46498;49.968;7.754;2023-04-07T18:52:31;97290.00;;;6.89;100.00
28606;BME280;46498;49.968;7.754;2023-04-07T18:57:32;97293.00;;;6.89;100.00
28606;BME280;46498;49.968;7.754;2023-04-07T19:02:36;97304.00;;;6.76;100.00
28606;BME280;46498;49.968;7.754;2023-04-07T19:07:43;97308.00;;;6.73;100.00
28606;BME280;46498;49.968;7.754;2023-04-07T19:12:44;97311.00;;;6.77;100.00
28606;BME280;46498;49.968;7.754;2023-04-07T19:17:45;97317.00;;;6.79;100.00
28606;BME280;46498;49.968;7.754;2023-04-07T19:22:46;97310.00;;;6.83;100.00
28606;BME280;46498;49.968;7.754;2023-04-07T19:27:47;97319.00;;;6.90;100.00
28606;BME280;46498;49.968;7.754;2023-04-07T19:32:48;97317.00;;;6.79;100.00
28606;BME280;46498;49.968;7.754;2023-04-07T19:37:49;97323.00;;;6.69;100.00
28606;BME280;46498;49.968;7.754;2023-04-07T19:42:51;97320.00;;;6.70;100.00
28606;BME280;46498;49.968;7.754;2023-04-07T19:47:54;97326.00;;;6.83;100.00
28606;BME280;46498;49.968;7.754;2023-04-07T19:52:56;97335.00;;;6.77;100.00
28606;BME280;46498;49.968;7.754;2023-04-07T19:57:57;97338.00;;;6.75;100.00
28606;BME280;46498;49.968;7.754;2023-04-07T20:02:58;97344.00;;;6.79;100.00
28606;BME280;46498;49.968;7.754;2023-04-07T20:07:59;97351.00;;;6.71;100.00
28606;BME280;46498;49.968;7.754;2023-04-07T20:13:01;97358.00;;;6.60;100.00
28606;BME280;46498;49.968;7.754;2023-04-07T20:18:02;97355.00;;;6.72;100.00
28606;BME280;46498;49.968;7.754;2023-04-07T20:23:03;97354.00;;;6.54;100.00
28606;BME280;46498;49.968;7.754;2023-04-07T20:28:04;97365.00;;;6.63;100.00
28606;BME280;46498;49.968;7.754;2023-04-07T20:33:05;97360.00;;;6.65;100.00
28606;BME280;46498;49.968;7.754;2023-04-07T20:38:06;97363.00;;;6.60;100.00
28606;BME280;46498;49.968;7.754;2023-04-07T20:43:07;97370.00;;;6.66;100.00
28606;BME280;46498;49.968;7.754;2023-04-07T20:48:08;97365.00;;;6.70;100.00
28606;BME280;46498;49.968;7.754;2023-04-07T20:53:08;97372.00;;;6.60;100.00
28606;BME280;46498;49.968;7.754;2023-04-07T20:58:09;97377.00;;;6.51;100.00
28606;BME280;46498;49.968;7.754;2023-04-07T21:03:11;97371.00;;;6.61;100.00
28606;BME280;46498;49.968;7.754;2023-04-07T21:08:12;97366.00;;;6.48;100.00
28606;BME280;46498;49.968;7.754;2023-04-07T21:13:15;97376.00;;;6.51;100.00
28606;BME280;46498;49.968;7.754;2023-04-07T21:18:15;97378.00;;;6.41;100.00
28606;BME280;46498;49.968;7.754;2023-04-07T21:23:19;97382.00;;;6.40;100.00
28606;BME280;46498;49.968;7.754;2023-04-07T21:28:20;97371.00;;;6.35;100.00
28606;BME280;46498;49.968;7.754;2023-04-07T21:33:21;97370.00;;;6.51;100.00
28606;BME280;46498;49.968;7.754;2023-04-07T21:38:22;97380.00;;;6.39;100.00
28606;BME280;46498;49.968;7.754;2023-04-07T21:43:23;97377.00;;;6.42;100.00
28606;BME280;46498;49.968;7.754;2023-04-07T21:48:24;97377.00;;;6.34;100.00
28606;BME280;46498;49.968;7.754;2023-04-07T21:53:25;97376.00;;;6.38;100.00
28606;BME280;46498;49.968;7.754;2023-04-07T21:58:26;97374.00;;;6.37;100.00
28606;BME280;46498;49.968;7.754;2023-04-07T22:03:27;97380.00;;;6.34;100.00
28606;BME280;46498;49.968;7.754;2023-04-07T22:08:29;97381.00;;;6.42;100.00
28606;BME280;46498;49.968;7.754;2023-04-07T22:13:29;97383.00;;;6.40;100.00
28606;BME280;46498;49.968;7.754;2023-04-07T22:18:31;97385.00;;;6.36;100.00
28606;BME280;46498;49.968;7.754;2023-04-07T22:23:32;97383.00;;;6.31;100.00
28606;BME280;46498;49.968;7.754;2023-04-07T22:28:33;97374.00;;;6.25;100.00
28606;BME280;46498;49.968;7.754;2023-04-07T22:33:34;97376.00;;;6.23;100.00
28606;BME280;46498;49.968;7.754;2023-04-07T22:38:34;97379.00;;;6.39;100.00
28606;BME280;46498;49.968;7.754;2023-04-07T22:43:35;97376.00;;;6.35;100.00
28606;BME280;46498;49.968;7.754;2023-04-07T22:48:36;97380.00;;;6.16;100.00
28606;BME280;46498;49.968;7.754;2023-04-07T22:53:37;97381.00;;;6.16;100.00
28606;BME280;46498;49.968;7.754;2023-04-07T22:58:38;97382.00;;;6.20;100.00
28606;BME280;46498;49.968;7.754;2023-04-07T23:03:39;97381.00;;;6.23;100.00
28606;BME280;46498;49.968;7.754;2023-04-07T23:08:40;97382.00;;;6.19;100.00
28606;BME280;46498;49.968;7.754;2023-04-07T23:13:41;97396.00;;;6.22;100.00
28606;BME280;46498;49.968;7.754;2023-04-07T23:18:42;97397.00;;;6.35;100.00
28606;BME280;46498;49.968;7.754;2023-04-07T23:23:43;97401.00;;;6.20;100.00
28606;BME280;46498;49.968;7.754;2023-04-07T23:28:44;97408.00;;;6.43;100.00
28606;BME280;46498;49.968;7.754;2023-04-07T23:33:46;97413.00;;;6.36;100.00
28606;BME280;46498;49.968;7.754;2023-04-07T23:38:47;97416.00;;;6.33;100.00
28606;BME280;46498;49.968;7.754;2023-04-07T23:43:48;97425.00;;;6.40;100.00
28606;BME280;46498;49.968;7.754;2023-04-07T23:48:49;97423.00;;;6.31;100.00
28606;BME280;46498;49.968;7.754;2023-04-07T23:53:50;97434.00;;;6.43;100.00
28606;BME280;46498;49.968;7.754;2023-04-07T23:58:51;97428.00;;;6.42;100.00
